sensor_id;sensor_type;location;lat;lon;timestamp;P1;durP1;ratioP1;P2;durP2;ratioP2
1344;SDS011;15375;48.540;9.268;2022-12-13T00:00:40;20.40;;;10.93;;
1344;SDS011;15375;48.540;9.268;2022-12-13T00:03:06;29.93;;;15.50;;
1344;SDS011;15375;48.540;9.268;2022-12-13T00:05:32;23.85;;;13.68;;
1344;SDS011;15375;48.540;9.268;2022-12-13T00:07:58;24.97;;;11.40;;
1344;SDS011;15375;48.540;9.268;2022-12-13T00:10:24;27.67;;;13.20;;
1344;SDS011;15375;48.540;9.268;2022-12-13T00:12:50;24.40;;;12.50;;
1344;SDS011;15375;48.540;9.268;2022-12-13T00:15:15;23.53;;;12.40;;
1344;SDS011;15375;48.540;9.268;2022-12-13T00:17:40;20.50;;;11.53;;
1344;SDS011;15375;48.540;9.268;2022-12-13T00:20:06;14.80;;;9.20;;
1344;SDS011;15375;48.540;9.268;2022-12-13T00:22:35;17.92;;;9.90;;
1344;SDS011;15375;48.540;9.268;2022-12-13T00:25:04;13.82;;;10.38;;
1344;SDS011;15375;48.540;9.268;2022-12-13T00:27:32;18.42;;;11.50;;
1344;SDS011;15375;48.540;9.268;2022-12-13T00:29:57;21.27;;;11.27;;
1344;SDS011;15375;48.540;9.268;2022-12-13T00:32:23;23.23;;;10.27;;
1344;SDS011;15375;48.540;9.268;2022-12-13T00:34:48;21.20;;;13.40;;
1344;SDS011;15375;48.540;9.268;2022-12-13T00:37:13;17.20;;;12.47;;
1344;SDS011;15375;48.540;9.268;2022-12-13T00:39:39;17.77;;;10.40;;
1344;SDS011;15375;48.540;9.268;2022-12-13T00:42:04;17.67;;;11.17;;
1344;SDS011;15375;48.540;9.268;2022-12-13T00:44:30;20.83;;;12.60;;
1344;SDS011;15375;48.540;9.268;2022-12-13T00:46:55;16.80;;;12.23;;
1344;SDS011;15375;48.540;9.268;2022-12-13T00:49:21;18.93;;;11.57;;
1344;SDS011;15375;48.540;9.268;2022-12-13T00:51:47;20.80;;;12.40;;
1344;SDS011;15375;48.540;9.268;2022-12-13T00:54:13;16.98;;;9.90;;
1344;SDS011;15375;48.540;9.268;2022-12-13T00:56:39;22.17;;;13.53;;
1344;SDS011;15375;48.540;9.268;2022-12-13T00:59:04;17.83;;;9.47;;
1344;SDS011;15375;48.540;9.268;2022-12-13T01:01:31;18.53;;;12.67;;
1344;SDS011;15375;48.540;9.268;2022-12-13T01:03:58;25.13;;;11.48;;
1344;SDS011;15375;48.540;9.268;2022-12-13T01:06:27;21.88;;;9.02;;
1344;SDS011;15375;48.540;9.268;2022-12-13T01:08:55;25.52;;;12.32;;
1344;SDS011;15375;48.540;9.268;2022-12-13T01:11:21;20.15;;;12.73;;
1344;SDS011;15375;48.540;9.268;2022-12-13T01:13:47;23.23;;;12.87;;
1344;SDS011;15375;48.540;9.268;2022-12-13T01:16:13;19.03;;;10.07;;
1344;SDS011;15375;48.540;9.268;2022-12-13T01:18:38;20.40;;;11.03;;
1344;SDS011;15375;48.540;9.268;2022-12-13T01:21:06;20.52;;;13.20;;
1344;SDS011;15375;48.540;9.268;2022-12-13T01:23:35;26.27;;;14.02;;
1344;SDS011;15375;48.540;9.268;2022-12-13T01:26:01;22.07;;;14.10;;
1344;SDS011;15375;48.540;9.268;2022-12-13T01:28:33;27.63;;;12.50;;
1344;SDS011;15375;48.540;9.268;2022-12-13T01:31:03;25.33;;;13.38;;
1344;SDS011;15375;48.540;9.268;2022-12-13T01:34:02;21.67;;;12.00;;
1344;SDS011;15375;48.540;9.268;2022-12-13T01:36:34;33.40;;;14.35;;
1344;SDS011;15375;48.540;9.268;2022-12-13T01:39:00;32.20;;;16.13;;
1344;SDS011;15375;48.540;9.268;2022-12-13T01:41:27;25.20;;;12.93;;
1344;SDS011;15375;48.540;9.268;2022-12-13T01:47:03;17.92;;;11.55;;
1344;SDS011;15375;48.540;9.268;2022-12-13T01:49:28;22.93;;;14.63;;
1344;SDS011;15375;48.540;9.268;2022-12-13T01:51:55;23.07;;;13.40;;
1344;SDS011;15375;48.540;9.268;2022-12-13T01:54:28;21.65;;;11.52;;
1344;SDS011;15375;48.540;9.268;2022-12-13T01:56:56;22.75;;;13.60;;
1344;SDS011;15375;48.540;9.268;2022-12-13T01:59:23;26.70;;;15.18;;
1344;SDS011;15375;48.540;9.268;2022-12-13T02:01:51;23.92;;;13.95;;
1344;SDS011;15375;48.540;9.268;2022-12-13T02:04:18;22.97;;;13.97;;
1344;SDS011;15375;48.540;9.268;2022-12-13T02:06:50;24.48;;;12.95;;
1344;SDS011;15375;48.540;9.268;2022-12-13T02:09:17;20.05;;;12.60;;
1344;SDS011;15375;48.540;9.268;2022-12-13T02:11:52;20.58;;;13.45;;
1344;SDS011;15375;48.540;9.268;2022-12-13T02:14:17;18.17;;;11.63;;
1344;SDS011;15375;48.540;9.268;2022-12-13T02:33:43;25.65;;;12.60;;
1344;SDS011;15375;48.540;9.268;2022-12-13T02:36:28;27.65;;;14.18;;
1344;SDS011;15375;48.540;9.268;2022-12-13T02:39:21;30.15;;;16.83;;
1344;SDS011;15375;48.540;9.268;2022-12-13T02:46:50;21.27;;;11.95;;
1344;SDS011;15375;48.540;9.268;2022-12-13T02:49:23;30.63;;;16.45;;
1344;SDS011;15375;48.540;9.268;2022-12-13T02:51:53;28.10;;;15.18;;
1344;SDS011;15375;48.540;9.268;2022-12-13T02:54:21;24.17;;;14.77;;
1344;SDS011;15375;48.540;9.268;2022-12-13T02:56:54;25.27;;;14.88;;
1344;SDS011;15375;48.540;9.268;2022-12-13T02:59:20;27.33;;;16.25;;
1344;SDS011;15375;48.540;9.268;2022-12-13T03:01:51;22.73;;;13.80;;
1344;SDS011;15375;48.540;9.268;2022-12-13T03:04:26;22.05;;;13.95;;
1344;SDS011;15375;48.540;9.268;2022-12-13T03:07:10;26.67;;;14.55;;
1344;SDS011;15375;48.540;9.268;2022-12-13T03:09:57;25.88;;;17.00;;
1344;SDS011;15375;48.540;9.268;2022-12-13T03:12:33;25.40;;;13.00;;
1344;SDS011;15375;48.540;9.268;2022-12-13T03:15:26;26.40;;;14.27;;
1344;SDS011;15375;48.540;9.268;2022-12-13T03:18:01;26.25;;;15.88;;
1344;SDS011;15375;48.540;9.268;2022-12-13T03:20:39;22.25;;;14.45;;
1344;SDS011;15375;48.540;9.268;2022-12-13T03:23:09;23.92;;;13.57;;
1344;SDS011;15375;48.540;9.268;2022-12-13T03:25:34;25.60;;;16.30;;
1344;SDS011;15375;48.540;9.268;2022-12-13T03:28:00;23.13;;;15.30;;
1344;SDS011;15375;48.540;9.268;2022-12-13T03:30:25;28.70;;;15.10;;
1344;SDS011;15375;48.540;9.268;2022-12-13T03:32:51;29.17;;;15.83;;
1344;SDS011;15375;48.540;9.268;2022-12-13T03:35:16;18.93;;;11.70;;
1344;SDS011;15375;48.540;9.268;2022-12-13T03:37:42;28.13;;;14.03;;
1344;SDS011;15375;48.540;9.268;2022-12-13T03:40:07;30.43;;;19.37;;
1344;SDS011;15375;48.540;9.268;2022-12-13T03:42:34;33.57;;;15.83;;
1344;SDS011;15375;48.540;9.268;2022-12-13T03:44:59;23.30;;;14.27;;
1344;SDS011;15375;48.540;9.268;2022-12-13T03:47:25;23.20;;;12.93;;
1344;SDS011;15375;48.540;9.268;2022-12-13T03:49:50;24.93;;;13.63;;
1344;SDS011;15375;48.540;9.268;2022-12-13T03:52:16;26.43;;;13.67;;
1344;SDS011;15375;48.540;9.268;2022-12-13T03:54:41;23.00;;;13.87;;
1344;SDS011;15375;48.540;9.268;2022-12-13T03:57:06;27.70;;;15.43;;
1344;SDS011;15375;48.540;9.268;2022-12-13T03:59:31;30.13;;;15.33;;
1344;SDS011;15375;48.540;9.268;2022-12-13T04:01:57;29.67;;;14.27;;
1344;SDS011;15375;48.540;9.268;2022-12-13T04:04:22;30.70;;;17.53;;
1344;SDS011;15375;48.540;9.268;2022-12-13T04:06:48;27.13;;;15.50;;
1344;SDS011;15375;48.540;9.268;2022-12-13T04:09:13;26.37;;;15.40;;
1344;SDS011;15375;48.540;9.268;2022-12-13T04:11:38;26.77;;;14.47;;
1344;SDS011;15375;48.540;9.268;2022-12-13T04:14:22;29.08;;;17.60;;
1344;SDS011;15375;48.540;9.268;2022-12-13T04:16:47;34.97;;;19.27;;
1344;SDS011;15375;48.540;9.268;2022-12-13T04:19:13;28.00;;;16.27;;
1344;SDS011;15375;48.540;9.268;2022-12-13T04:21:38;23.10;;;13.50;;
1344;SDS011;15375;48.540;9.268;2022-12-13T04:24:03;24.77;;;13.97;;
1344;SDS011;15375;48.540;9.268;2022-12-13T04:26:29;26.20;;;14.27;;
1344;SDS011;15375;48.540;9.268;2022-12-13T04:28:55;26.23;;;14.07;;
1344;SDS011;15375;48.540;9.268;2022-12-13T04:31:20;21.20;;;14.13;;
1344;SDS011;15375;48.540;9.268;2022-12-13T04:33:46;20.70;;;12.87;;
1344;SDS011;15375;48.540;9.268;2022-12-13T04:36:11;24.27;;;14.00;;
1344;SDS011;15375;48.540;9.268;2022-12-13T04:38:44;22.67;;;12.98;;
1344;SDS011;15375;48.540;9.268;2022-12-13T04:41:14;29.27;;;15.48;;
1344;SDS011;15375;48.540;9.268;2022-12-13T04:43:41;29.50;;;14.55;;
1344;SDS011;15375;48.540;9.268;2022-12-13T04:46:07;25.00;;;15.60;;
1344;SDS011;15375;48.540;9.268;2022-12-13T04:48:32;17.87;;;10.97;;
1344;SDS011;15375;48.540;9.268;2022-12-13T04:50:58;26.00;;;14.33;;
1344;SDS011;15375;48.540;9.268;2022-12-13T04:53:24;26.17;;;14.80;;
1344;SDS011;15375;48.540;9.268;2022-12-13T04:55:50;20.53;;;12.73;;
1344;SDS011;15375;48.540;9.268;2022-12-13T04:58:16;20.88;;;12.90;;
1344;SDS011;15375;48.540;9.268;2022-12-13T05:00:41;14.77;;;11.90;;
1344;SDS011;15375;48.540;9.268;2022-12-13T05:03:07;22.10;;;13.47;;
1344;SDS011;15375;48.540;9.268;2022-12-13T05:05:32;23.03;;;12.63;;
1344;SDS011;15375;48.540;9.268;2022-12-13T05:07:58;27.60;;;14.60;;
1344;SDS011;15375;48.540;9.268;2022-12-13T05:10:23;16.60;;;12.03;;
1344;SDS011;15375;48.540;9.268;2022-12-13T05:12:48;17.70;;;11.20;;
1344;SDS011;15375;48.540;9.268;2022-12-13T05:15:14;14.47;;;8.67;;
1344;SDS011;15375;48.540;9.268;2022-12-13T05:17:39;23.63;;;13.77;;
1344;SDS011;15375;48.540;9.268;2022-12-13T05:20:05;22.53;;;11.87;;
1344;SDS011;15375;48.540;9.268;2022-12-13T05:22:42;22.70;;;12.23;;
1344;SDS011;15375;48.540;9.268;2022-12-13T05:25:08;22.45;;;13.98;;
1344;SDS011;15375;48.540;9.268;2022-12-13T05:27:34;24.60;;;14.00;;
1344;SDS011;15375;48.540;9.268;2022-12-13T05:30:08;22.75;;;12.80;;
1344;SDS011;15375;48.540;9.268;2022-12-13T05:32:34;17.95;;;11.10;;
1344;SDS011;15375;48.540;9.268;2022-12-13T05:35:03;20.15;;;11.63;;
1344;SDS011;15375;48.540;9.268;2022-12-13T05:37:29;18.63;;;12.70;;
1344;SDS011;15375;48.540;9.268;2022-12-13T05:39:55;33.83;;;13.95;;
1344;SDS011;15375;48.540;9.268;2022-12-13T05:42:20;27.53;;;12.63;;
1344;SDS011;15375;48.540;9.268;2022-12-13T05:44:46;20.20;;;12.73;;
1344;SDS011;15375;48.540;9.268;2022-12-13T05:47:11;22.33;;;13.83;;
1344;SDS011;15375;48.540;9.268;2022-12-13T05:49:36;24.07;;;15.07;;
1344;SDS011;15375;48.540;9.268;2022-12-13T05:52:02;21.20;;;11.70;;
1344;SDS011;15375;48.540;9.268;2022-12-13T05:54:33;17.88;;;11.93;;
1344;SDS011;15375;48.540;9.268;2022-12-13T05:57:02;19.45;;;13.88;;
1344;SDS011;15375;48.540;9.268;2022-12-13T05:59:27;23.17;;;13.90;;
1344;SDS011;15375;48.540;9.268;2022-12-13T06:01:53;25.27;;;14.53;;
1344;SDS011;15375;48.540;9.268;2022-12-13T06:04:18;14.17;;;11.00;;
1344;SDS011;15375;48.540;9.268;2022-12-13T06:06:44;20.97;;;13.07;;
1344;SDS011;15375;48.540;9.268;2022-12-13T06:09:09;19.90;;;11.73;;
1344;SDS011;15375;48.540;9.268;2022-12-13T06:11:35;24.70;;;13.60;;
1344;SDS011;15375;48.540;9.268;2022-12-13T06:14:00;23.70;;;13.10;;
1344;SDS011;15375;48.540;9.268;2022-12-13T06:16:26;21.87;;;13.73;;
1344;SDS011;15375;48.540;9.268;2022-12-13T06:18:51;25.97;;;15.10;;
1344;SDS011;15375;48.540;9.268;2022-12-13T06:21:17;23.75;;;12.30;;
1344;SDS011;15375;48.540;9.268;2022-12-13T06:23:44;21.40;;;12.38;;
1344;SDS011;15375;48.540;9.268;2022-12-13T06:26:09;20.50;;;12.60;;
1344;SDS011;15375;48.540;9.268;2022-12-13T06:28:35;25.00;;;13.23;;
1344;SDS011;15375;48.540;9.268;2022-12-13T06:31:01;23.63;;;14.13;;
1344;SDS011;15375;48.540;9.268;2022-12-13T06:33:28;23.77;;;12.73;;
1344;SDS011;15375;48.540;9.268;2022-12-13T06:35:55;24.07;;;13.43;;
1344;SDS011;15375;48.540;9.268;2022-12-13T06:38:22;17.77;;;12.77;;
1344;SDS011;15375;48.540;9.268;2022-12-13T06:40:49;20.70;;;11.90;;
1344;SDS011;15375;48.540;9.268;2022-12-13T06:43:15;26.35;;;15.13;;
1344;SDS011;15375;48.540;9.268;2022-12-13T06:45:40;24.23;;;12.90;;
1344;SDS011;15375;48.540;9.268;2022-12-13T06:48:05;9.00;;;6.50;;
1344;SDS011;15375;48.540;9.268;2022-12-13T06:50:31;24.20;;;11.47;;
1344;SDS011;15375;48.540;9.268;2022-12-13T06:52:56;1.57;;;1.47;;
1344;SDS011;15375;48.540;9.268;2022-12-13T06:55:22;22.03;;;10.60;;
1344;SDS011;15375;48.540;9.268;2022-12-13T06:57:47;21.93;;;9.20;;
1344;SDS011;15375;48.540;9.268;2022-12-13T07:00:13;23.57;;;11.87;;
1344;SDS011;15375;48.540;9.268;2022-12-13T07:02:39;19.67;;;10.93;;
1344;SDS011;15375;48.540;9.268;2022-12-13T07:05:04;27.10;;;14.53;;
1344;SDS011;15375;48.540;9.268;2022-12-13T07:07:30;18.60;;;10.40;;
1344;SDS011;15375;48.540;9.268;2022-12-13T07:09:56;22.90;;;12.60;;
1344;SDS011;15375;48.540;9.268;2022-12-13T07:12:21;17.03;;;10.03;;
1344;SDS011;15375;48.540;9.268;2022-12-13T07:14:47;23.33;;;10.82;;
1344;SDS011;15375;48.540;9.268;2022-12-13T07:17:13;24.23;;;12.47;;
1344;SDS011;15375;48.540;9.268;2022-12-13T07:19:38;15.97;;;10.47;;
1344;SDS011;15375;48.540;9.268;2022-12-13T07:22:07;21.83;;;10.98;;
1344;SDS011;15375;48.540;9.268;2022-12-13T07:24:35;18.87;;;12.10;;
1344;SDS011;15375;48.540;9.268;2022-12-13T07:27:01;23.52;;;13.20;;
1344;SDS011;15375;48.540;9.268;2022-12-13T07:29:27;22.67;;;12.18;;
1344;SDS011;15375;48.540;9.268;2022-12-13T07:31:53;18.73;;;11.07;;
1344;SDS011;15375;48.540;9.268;2022-12-13T07:34:18;17.27;;;10.77;;
1344;SDS011;15375;48.540;9.268;2022-12-13T07:36:43;22.43;;;12.20;;
1344;SDS011;15375;48.540;9.268;2022-12-13T07:39:12;16.40;;;11.82;;
1344;SDS011;15375;48.540;9.268;2022-12-13T07:41:37;26.87;;;12.27;;
1344;SDS011;15375;48.540;9.268;2022-12-13T07:44:03;15.90;;;10.57;;
1344;SDS011;15375;48.540;9.268;2022-12-13T07:46:28;23.20;;;13.23;;
1344;SDS011;15375;48.540;9.268;2022-12-13T07:48:54;32.37;;;11.53;;
1344;SDS011;15375;48.540;9.268;2022-12-13T07:51:19;26.87;;;12.83;;
1344;SDS011;15375;48.540;9.268;2022-12-13T07:53:45;18.90;;;11.53;;
1344;SDS011;15375;48.540;9.268;2022-12-13T07:56:10;12.97;;;7.50;;
1344;SDS011;15375;48.540;9.268;2022-12-13T07:58:36;26.17;;;12.17;;
1344;SDS011;15375;48.540;9.268;2022-12-13T08:01:05;22.38;;;13.55;;
1344;SDS011;15375;48.540;9.268;2022-12-13T08:03:32;16.48;;;12.48;;
1344;SDS011;15375;48.540;9.268;2022-12-13T08:05:59;28.33;;;14.77;;
1344;SDS011;15375;48.540;9.268;2022-12-13T08:08:27;28.65;;;16.95;;
1344;SDS011;15375;48.540;9.268;2022-12-13T08:10:52;29.90;;;14.63;;
1344;SDS011;15375;48.540;9.268;2022-12-13T08:13:18;24.77;;;14.23;;
1344;SDS011;15375;48.540;9.268;2022-12-13T08:15:43;20.33;;;13.23;;
1344;SDS011;15375;48.540;9.268;2022-12-13T08:18:08;22.10;;;13.60;;
1344;SDS011;15375;48.540;9.268;2022-12-13T08:20:34;23.73;;;13.40;;
1344;SDS011;15375;48.540;9.268;2022-12-13T08:22:59;31.30;;;13.90;;
1344;SDS011;15375;48.540;9.268;2022-12-13T08:25:25;63.47;;;15.00;;
1344;SDS011;15375;48.540;9.268;2022-12-13T08:27:51;30.25;;;17.63;;
1344;SDS011;15375;48.540;9.268;2022-12-13T08:30:16;39.33;;;16.90;;
1344;SDS011;15375;48.540;9.268;2022-12-13T08:32:42;31.53;;;14.97;;
1344;SDS011;15375;48.540;9.268;2022-12-13T08:35:08;23.00;;;15.10;;
1344;SDS011;15375;48.540;9.268;2022-12-13T08:37:33;32.33;;;16.00;;
1344;SDS011;15375;48.540;9.268;2022-12-13T08:39:59;21.03;;;15.00;;
1344;SDS011;15375;48.540;9.268;2022-12-13T08:42:24;29.47;;;16.67;;
1344;SDS011;15375;48.540;9.268;2022-12-13T08:44:50;30.53;;;16.50;;
1344;SDS011;15375;48.540;9.268;2022-12-13T08:47:18;28.77;;;15.35;;
1344;SDS011;15375;48.540;9.268;2022-12-13T08:49:44;20.20;;;13.98;;
1344;SDS011;15375;48.540;9.268;2022-12-13T08:52:09;35.90;;;19.67;;
1344;SDS011;15375;48.540;9.268;2022-12-13T08:54:35;38.47;;;21.07;;
1344;SDS011;15375;48.540;9.268;2022-12-13T08:57:00;33.20;;;18.80;;
1344;SDS011;15375;48.540;9.268;2022-12-13T08:59:25;29.20;;;16.47;;
1344;SDS011;15375;48.540;9.268;2022-12-13T09:01:51;27.03;;;15.70;;
1344;SDS011;15375;48.540;9.268;2022-12-13T09:04:16;29.20;;;15.37;;
1344;SDS011;15375;48.540;9.268;2022-12-13T09:06:42;28.17;;;17.27;;
1344;SDS011;15375;48.540;9.268;2022-12-13T09:09:07;27.70;;;15.17;;
1344;SDS011;15375;48.540;9.268;2022-12-13T09:11:33;23.63;;;13.97;;
1344;SDS011;15375;48.540;9.268;2022-12-13T09:13:59;26.80;;;15.70;;
1344;SDS011;15375;48.540;9.268;2022-12-13T09:16:24;22.00;;;15.77;;
1344;SDS011;15375;48.540;9.268;2022-12-13T09:18:50;27.03;;;14.80;;
1344;SDS011;15375;48.540;9.268;2022-12-13T09:21:19;24.73;;;15.68;;
1344;SDS011;15375;48.540;9.268;2022-12-13T09:23:44;26.03;;;15.10;;
1344;SDS011;15375;48.540;9.268;2022-12-13T09:26:10;21.53;;;14.80;;
1344;SDS011;15375;48.540;9.268;2022-12-13T09:28:37;22.40;;;14.45;;
1344;SDS011;15375;48.540;9.268;2022-12-13T09:31:07;21.90;;;15.67;;
1344;SDS011;15375;48.540;9.268;2022-12-13T09:33:37;24.27;;;16.70;;
1344;SDS011;15375;48.540;9.268;2022-12-13T09:36:04;32.00;;;17.03;;
1344;SDS011;15375;48.540;9.268;2022-12-13T09:38:30;24.05;;;16.73;;
1344;SDS011;15375;48.540;9.268;2022-12-13T09:40:57;25.73;;;16.10;;
1344;SDS011;15375;48.540;9.268;2022-12-13T09:43:29;26.63;;;16.15;;
1344;SDS011;15375;48.540;9.268;2022-12-13T09:45:57;27.17;;;15.60;;
1344;SDS011;15375;48.540;9.268;2022-12-13T09:48:24;25.48;;;14.40;;
1344;SDS011;15375;48.540;9.268;2022-12-13T09:50:50;24.70;;;15.07;;
1344;SDS011;15375;48.540;9.268;2022-12-13T09:53:17;17.50;;;13.68;;
1344;SDS011;15375;48.540;9.268;2022-12-13T09:55:47;23.67;;;14.70;;
1344;SDS011;15375;48.540;9.268;2022-12-13T09:58:20;21.65;;;13.95;;
1344;SDS011;15375;48.540;9.268;2022-12-13T10:00:50;23.88;;;15.57;;
1344;SDS011;15375;48.540;9.268;2022-12-13T10:03:17;21.55;;;15.43;;
1344;SDS011;15375;48.540;9.268;2022-12-13T10:05:47;26.15;;;16.63;;
1344;SDS011;15375;48.540;9.268;2022-12-13T10:08:26;28.13;;;15.27;;
1344;SDS011;15375;48.540;9.268;2022-12-13T10:10:57;22.20;;;14.15;;
1344;SDS011;15375;48.540;9.268;2022-12-13T10:16:12;23.27;;;14.95;;
1344;SDS011;15375;48.540;9.268;2022-12-13T10:18:39;31.27;;;17.45;;
1344;SDS011;15375;48.540;9.268;2022-12-13T10:21:10;30.00;;;17.92;;
1344;SDS011;15375;48.540;9.268;2022-12-13T10:23:36;29.92;;;16.17;;
1344;SDS011;15375;48.540;9.268;2022-12-13T10:26:02;31.47;;;17.43;;
1344;SDS011;15375;48.540;9.268;2022-12-13T10:28:33;27.65;;;16.98;;
1344;SDS011;15375;48.540;9.268;2022-12-13T10:31:00;21.52;;;16.05;;
1344;SDS011;15375;48.540;9.268;2022-12-13T10:33:28;28.00;;;17.20;;
1344;SDS011;15375;48.540;9.268;2022-12-13T10:38:34;21.85;;;15.02;;
1344;SDS011;15375;48.540;9.268;2022-12-13T10:41:01;29.00;;;17.10;;
1344;SDS011;15375;48.540;9.268;2022-12-13T10:43:27;34.75;;;17.70;;
1344;SDS011;15375;48.540;9.268;2022-12-13T10:48:20;35.50;;;17.40;;
1344;SDS011;15375;48.540;9.268;2022-12-13T10:50:58;26.27;;;16.35;;
1344;SDS011;15375;48.540;9.268;2022-12-13T10:53:30;24.20;;;14.13;;
1344;SDS011;15375;48.540;9.268;2022-12-13T10:55:59;25.70;;;15.82;;
1344;SDS011;15375;48.540;9.268;2022-12-13T10:58:34;31.60;;;16.40;;
1344;SDS011;15375;48.540;9.268;2022-12-13T11:04:08;19.92;;;14.73;;
1344;SDS011;15375;48.540;9.268;2022-12-13T11:06:46;25.20;;;15.55;;
1344;SDS011;15375;48.540;9.268;2022-12-13T11:09:20;21.15;;;12.10;;
1344;SDS011;15375;48.540;9.268;2022-12-13T11:11:49;31.90;;;17.30;;
1344;SDS011;15375;48.540;9.268;2022-12-13T11:14:17;24.48;;;15.07;;
1344;SDS011;15375;48.540;9.268;2022-12-13T11:16:48;25.10;;;16.30;;
1344;SDS011;15375;48.540;9.268;2022-12-13T11:19:17;28.02;;;16.60;;
1344;SDS011;15375;48.540;9.268;2022-12-13T11:22:04;21.23;;;14.20;;
1344;SDS011;15375;48.540;9.268;2022-12-13T11:24:32;23.23;;;14.98;;
1344;SDS011;15375;48.540;9.268;2022-12-13T11:30:27;16.98;;;11.90;;
1344;SDS011;15375;48.540;9.268;2022-12-13T11:50:18;18.10;;;11.73;;
1344;SDS011;15375;48.540;9.268;2022-12-13T11:52:54;24.45;;;12.35;;
1344;SDS011;15375;48.540;9.268;2022-12-13T11:55:34;15.20;;;10.00;;
1344;SDS011;15375;48.540;9.268;2022-12-13T12:00:36;20.48;;;12.68;;
1344;SDS011;15375;48.540;9.268;2022-12-13T12:03:19;19.40;;;12.10;;
1344;SDS011;15375;48.540;9.268;2022-12-13T12:05:53;20.65;;;13.15;;
1344;SDS011;15375;48.540;9.268;2022-12-13T12:08:34;18.88;;;11.93;;
1344;SDS011;15375;48.540;9.268;2022-12-13T12:11:19;16.38;;;11.20;;
1344;SDS011;15375;48.540;9.268;2022-12-13T12:13:55;17.58;;;10.25;;
1344;SDS011;15375;48.540;9.268;2022-12-13T12:16:35;15.50;;;10.52;;
1344;SDS011;15375;48.540;9.268;2022-12-13T12:19:14;22.13;;;12.18;;
1344;SDS011;15375;48.540;9.268;2022-12-13T12:21:48;16.48;;;9.50;;
1344;SDS011;15375;48.540;9.268;2022-12-13T12:24:34;16.17;;;8.75;;
1344;SDS011;15375;48.540;9.268;2022-12-13T12:30:15;13.80;;;9.27;;
1344;SDS011;15375;48.540;9.268;2022-12-13T12:35:39;17.88;;;10.35;;
1344;SDS011;15375;48.540;9.268;2022-12-13T13:08:11;20.50;;;8.73;;
1344;SDS011;15375;48.540;9.268;2022-12-13T13:10:42;14.70;;;7.35;;
1344;SDS011;15375;48.540;9.268;2022-12-13T13:16:02;7.28;;;6.25;;
1344;SDS011;15375;48.540;9.268;2022-12-13T13:21:24;10.52;;;6.55;;
1344;SDS011;15375;48.540;9.268;2022-12-13T13:26:34;14.05;;;8.23;;
1344;SDS011;15375;48.540;9.268;2022-12-13T13:31:57;17.73;;;8.43;;
1344;SDS011;15375;48.540;9.268;2022-12-13T13:34:25;12.55;;;6.80;;
1344;SDS011;15375;48.540;9.268;2022-12-13T13:36:56;11.70;;;6.80;;
1344;SDS011;15375;48.540;9.268;2022-12-13T13:49:58;11.07;;;6.57;;
1344;SDS011;15375;48.540;9.268;2022-12-13T13:52:53;11.50;;;7.20;;
1344;SDS011;15375;48.540;9.268;2022-12-13T14:09:19;8.77;;;5.63;;
1344;SDS011;15375;48.540;9.268;2022-12-13T14:15:19;13.85;;;7.10;;
1344;SDS011;15375;48.540;9.268;2022-12-13T14:21:02;10.40;;;6.07;;
1344;SDS011;15375;48.540;9.268;2022-12-13T14:29:15;7.35;;;4.80;;
1344;SDS011;15375;48.540;9.268;2022-12-13T14:31:45;6.50;;;4.70;;
1344;SDS011;15375;48.540;9.268;2022-12-13T14:34:30;8.13;;;4.65;;
1344;SDS011;15375;48.540;9.268;2022-12-13T14:37:01;8.25;;;4.72;;
1344;SDS011;15375;48.540;9.268;2022-12-13T14:39:29;10.15;;;6.28;;
1344;SDS011;15375;48.540;9.268;2022-12-13T14:41:59;5.60;;;3.90;;
1344;SDS011;15375;48.540;9.268;2022-12-13T14:44:29;9.15;;;5.30;;
1344;SDS011;15375;48.540;9.268;2022-12-13T14:47:07;5.53;;;4.53;;
1344;SDS011;15375;48.540;9.268;2022-12-13T14:49:40;6.25;;;3.92;;
1344;SDS011;15375;48.540;9.268;2022-12-13T14:52:13;8.50;;;5.20;;
1344;SDS011;15375;48.540;9.268;2022-12-13T14:57:15;17.48;;;6.97;;
1344;SDS011;15375;48.540;9.268;2022-12-13T14:59:46;11.52;;;7.07;;
1344;SDS011;15375;48.540;9.268;2022-12-13T15:02:14;10.55;;;6.72;;
1344;SDS011;15375;48.540;9.268;2022-12-13T15:04:41;8.65;;;6.40;;
1344;SDS011;15375;48.540;9.268;2022-12-13T15:07:09;8.40;;;5.87;;
1344;SDS011;15375;48.540;9.268;2022-12-13T15:09:46;11.95;;;6.93;;
1344;SDS011;15375;48.540;9.268;2022-12-13T15:12:17;12.02;;;7.22;;
1344;SDS011;15375;48.540;9.268;2022-12-13T15:14:45;12.13;;;7.50;;
1344;SDS011;15375;48.540;9.268;2022-12-13T15:17:24;9.00;;;5.50;;
1344;SDS011;15375;48.540;9.268;2022-12-13T15:19:50;10.07;;;6.68;;
1344;SDS011;15375;48.540;9.268;2022-12-13T15:22:15;9.00;;;7.20;;
1344;SDS011;15375;48.540;9.268;2022-12-13T15:24:41;11.40;;;7.10;;
1344;SDS011;15375;48.540;9.268;2022-12-13T15:27:17;11.27;;;5.03;;
1344;SDS011;15375;48.540;9.268;2022-12-13T15:29:45;7.63;;;5.70;;
1344;SDS011;15375;48.540;9.268;2022-12-13T15:32:13;10.52;;;7.68;;
1344;SDS011;15375;48.540;9.268;2022-12-13T15:34:43;12.55;;;6.45;;
1344;SDS011;15375;48.540;9.268;2022-12-13T15:39:39;7.80;;;5.00;;
1344;SDS011;15375;48.540;9.268;2022-12-13T15:42:42;8.25;;;7.13;;
1344;SDS011;15375;48.540;9.268;2022-12-13T15:45:00;12.20;;;7.18;;
1344;SDS011;15375;48.540;9.268;2022-12-13T15:47:29;10.73;;;6.88;;
1344;SDS011;15375;48.540;9.268;2022-12-13T15:49:59;10.67;;;6.80;;
1344;SDS011;15375;48.540;9.268;2022-12-13T15:52:36;12.85;;;8.32;;
1344;SDS011;15375;48.540;9.268;2022-12-13T15:57:30;11.40;;;6.43;;
1344;SDS011;15375;48.540;9.268;2022-12-13T16:00:33;14.40;;;6.82;;
1344;SDS011;15375;48.540;9.268;2022-12-13T16:03:16;11.63;;;7.47;;
1344;SDS011;15375;48.540;9.268;2022-12-13T16:05:52;10.30;;;5.95;;
1344;SDS011;15375;48.540;9.268;2022-12-13T16:10:57;9.35;;;6.07;;
1344;SDS011;15375;48.540;9.268;2022-12-13T16:13:30;9.68;;;6.03;;
1344;SDS011;15375;48.540;9.268;2022-12-13T16:15:58;10.55;;;6.18;;
1344;SDS011;15375;48.540;9.268;2022-12-13T16:18:40;9.38;;;7.45;;
1344;SDS011;15375;48.540;9.268;2022-12-13T16:21:10;10.55;;;7.05;;
1344;SDS011;15375;48.540;9.268;2022-12-13T16:23:35;11.87;;;8.67;;
1344;SDS011;15375;48.540;9.268;2022-12-13T16:26:00;10.30;;;7.17;;
1344;SDS011;15375;48.540;9.268;2022-12-13T16:28:26;10.13;;;5.97;;
1344;SDS011;15375;48.540;9.268;2022-12-13T16:33:17;10.73;;;7.07;;
1344;SDS011;15375;48.540;9.268;2022-12-13T16:35:46;7.32;;;5.45;;
1344;SDS011;15375;48.540;9.268;2022-12-13T16:38:12;7.40;;;5.37;;
1344;SDS011;15375;48.540;9.268;2022-12-13T16:40:38;5.93;;;5.28;;
1344;SDS011;15375;48.540;9.268;2022-12-13T16:43:04;14.30;;;6.80;;
1344;SDS011;15375;48.540;9.268;2022-12-13T16:45:36;13.52;;;7.30;;
1344;SDS011;15375;48.540;9.268;2022-12-13T16:48:04;2.70;;;2.25;;
1344;SDS011;15375;48.540;9.268;2022-12-13T16:50:31;8.90;;;6.68;;
1344;SDS011;15375;48.540;9.268;2022-12-13T16:52:57;12.23;;;5.97;;
1344;SDS011;15375;48.540;9.268;2022-12-13T16:55:22;14.17;;;9.40;;
1344;SDS011;15375;48.540;9.268;2022-12-13T16:57:55;9.30;;;5.93;;
1344;SDS011;15375;48.540;9.268;2022-12-13T17:00:25;10.32;;;6.43;;
1344;SDS011;15375;48.540;9.268;2022-12-13T17:02:53;12.82;;;6.82;;
1344;SDS011;15375;48.540;9.268;2022-12-13T17:05:18;14.15;;;7.00;;
1344;SDS011;15375;48.540;9.268;2022-12-13T17:07:44;7.97;;;6.10;;
1344;SDS011;15375;48.540;9.268;2022-12-13T17:10:10;9.77;;;7.00;;
1344;SDS011;15375;48.540;9.268;2022-12-13T17:12:36;11.73;;;8.43;;
1344;SDS011;15375;48.540;9.268;2022-12-13T17:15:01;13.07;;;7.10;;
1344;SDS011;15375;48.540;9.268;2022-12-13T17:17:27;13.30;;;7.83;;
1344;SDS011;15375;48.540;9.268;2022-12-13T17:19:52;9.70;;;6.87;;
1344;SDS011;15375;48.540;9.268;2022-12-13T17:22:18;8.93;;;7.70;;